Time;durP1;ratioP1;P1;durP2;ratioP2;P2;SDS_P1;SDS_P2;PMS_P1;PMS_P2;Temp;Humidity;BMP_temperature;BMP_pressure;BME280_temperature;BME280_humidity;BME280_pressure;Samples;Min_cycle;Max_cycle;Signal;HPM_P1;HPM_P2
2023/03/10 00:01:33;;;;;;;2.95;1.73;;;;;;;;;;5074467;28;20224;-83
2023/03/10 00:04:02;;;;;;;2.95;1.92;;;;;;;;;;5074828;28;20213;-83
2023/03/10 00:06:32;;;;;;;3.22;1.55;;;;;;;;;;5075419;28;20205;-83
2023/03/10 00:09:00;;;;;;;3.08;1.40;;;;;;;;;;5075505;28;20269;-83
2023/03/10 00:11:28;;;;;;;3.47;2.08;;;;;;;;;;5079672;22;20255;-83
2023/03/10 00:13:56;;;;;;;10.07;2.70;;;;;;;;;;5058818;28;20204;-82
2023/03/10 00:16:27;;;;;;;2.67;1.50;;;;;;;;;;5052338;28;20220;-84
2023/03/10 00:18:55;;;;;;;7.85;3.45;;;;;;;;;;5052013;28;20236;-83
2023/03/10 00:21:25;;;;;;;4.25;2.03;;;;;;;;;;5052551;28;20236;-83
2023/03/10 00:23:53;;;;;;;2.90;1.52;;;;;;;;;;5052138;28;20190;-83
2023/03/10 00:26:22;;;;;;;2.05;1.80;;;;;;;;;;5065435;22;20743;-85
2023/03/10 00:28:50;;;;;;;3.58;1.70;;;;;;;;;;5073399;28;20713;-85
2023/03/10 00:31:21;;;;;;;5.35;1.70;;;;;;;;;;5073290;28;20197;-86
2023/03/10 00:33:49;;;;;;;3.45;1.70;;;;;;;;;;5073122;28;20231;-86
2023/03/10 00:36:19;;;;;;;3.75;1.80;;;;;;;;;;5072756;28;20760;-85
2023/03/10 00:38:48;;;;;;;2.10;1.77;;;;;;;;;;5073225;28;20193;-85
2023/03/10 00:41:18;;;;;;;4.13;2.78;;;;;;;;;;5072542;28;20201;-85
2023/03/10 00:43:46;;;;;;;6.05;1.63;;;;;;;;;;5072806;28;20291;-85
2023/03/10 00:46:14;;;;;;;3.15;1.60;;;;;;;;;;5072696;28;20216;-86
2023/03/10 00:48:43;;;;;;;2.28;1.48;;;;;;;;;;5072548;28;20284;-85
2023/03/10 00:51:11;;;;;;;2.83;1.55;;;;;;;;;;5072581;28;20287;-85
2023/03/10 00:53:40;;;;;;;3.22;2.17;;;;;;;;;;5076742;28;20287;-85
2023/03/10 00:56:11;;;;;;;3.63;2.05;;;;;;;;;;5076602;28;20589;-85
2023/03/10 00:58:39;;;;;;;3.10;1.75;;;;;;;;;;5076490;28;20556;-85
2023/03/10 01:01:14;;;;;;;4.85;2.05;;;;;;;;;;5076629;28;20212;-85
2023/03/10 01:03:43;;;;;;;2.50;1.88;;;;;;;;;;5076587;28;20203;-85
2023/03/10 01:06:11;;;;;;;6.40;2.28;;;;;;;;;;5076569;28;20710;-85
2023/03/10 01:08:39;;;;;;;4.00;1.80;;;;;;;;;;5076269;28;20236;-85
2023/03/10 01:11:06;;;;;;;5.78;2.10;;;;;;;;;;5076491;28;20201;-85
2023/03/10 01:13:34;;;;;;;3.63;1.98;;;;;;;;;;5076154;28;20673;-85
2023/03/10 01:16:02;;;;;;;2.33;1.48;;;;;;;;;;5076346;28;20231;-86
2023/03/10 01:18:29;;;;;;;2.53;1.73;;;;;;;;;;5076022;28;20229;-89
2023/03/10 01:20:58;;;;;;;1.73;1.38;;;;;;;;;;5076293;28;20274;-85
2023/03/10 01:23:27;;;;;;;1.80;1.70;;;;;;;;;;5075916;28;20293;-85
2023/03/10 01:25:54;;;;;;;4.05;2.10;;;;;;;;;;5075876;28;20283;-86
2023/03/10 01:28:22;;;;;;;1.35;1.23;;;;;;;;;;5076206;28;20185;-86
2023/03/10 01:30:50;;;;;;;5.93;1.98;;;;;;;;;;5076351;28;20207;-85
2023/03/10 01:33:18;;;;;;;1.75;1.23;;;;;;;;;;5076147;28;20203;-85
2023/03/10 01:35:46;;;;;;;3.22;2.47;;;;;;;;;;5076039;28;20311;-85
2023/03/10 01:38:15;;;;;;;3.03;1.52;;;;;;;;;;5075729;28;20201;-85
2023/03/10 01:40:49;;;;;;;1.67;1.30;;;;;;;;;;5076128;28;20208;-86
2023/03/10 01:43:33;;;;;;;4.57;1.52;;;;;;;;;;5075772;28;20204;-85
2023/03/10 01:46:45;;;;;;;1.65;1.30;;;;;;;;;;5074846;28;20598;-85
2023/03/10 01:49:19;;;;;;;2.08;1.45;;;;;;;;;;5075554;28;20232;-86
2023/03/10 01:51:51;;;;;;;1.92;1.20;;;;;;;;;;5075445;28;20280;-86
2023/03/10 01:54:25;;;;;;;4.35;1.50;;;;;;;;;;5075914;28;20185;-85
2023/03/10 01:56:54;;;;;;;4.88;1.60;;;;;;;;;;5075189;28;20225;-85
2023/03/10 01:59:22;;;;;;;2.80;1.45;;;;;;;;;;5075595;28;20207;-85
2023/03/10 02:01:51;;;;;;;3.22;1.20;;;;;;;;;;5075554;28;20288;-86
2023/03/10 02:04:23;;;;;;;2.15;1.30;;;;;;;;;;5074128;28;20283;-85
2023/03/10 02:06:51;;;;;;;2.95;1.42;;;;;;;;;;5075150;28;20231;-85
2023/03/10 02:09:21;;;;;;;1.60;1.50;;;;;;;;;;5074902;28;20295;-86
2023/03/10 02:11:49;;;;;;;3.25;1.50;;;;;;;;;;5075517;28;20649;-85
2023/03/10 02:14:16;;;;;;;1.35;1.25;;;;;;;;;;5075379;28;20236;-85
2023/03/10 02:16:44;;;;;;;1.63;1.30;;;;;;;;;;5075135;28;20708;-85
2023/03/10 02:19:26;;;;;;;1.95;1.20;;;;;;;;;;5074966;28;20291;-85
2023/03/10 02:22:00;;;;;;;1.50;1.15;;;;;;;;;;5075049;28;20182;-86
2023/03/10 02:24:37;;;;;;;1.20;1.10;;;;;;;;;;5075014;28;20216;-85
2023/03/10 02:27:15;;;;;;;1.13;1.10;;;;;;;;;;5074982;28;20307;-85
2023/03/10 02:29:46;;;;;;;1.75;1.17;;;;;;;;;;5075100;28;20193;-85
2023/03/10 02:32:14;;;;;;;1.63;1.20;;;;;;;;;;5074909;28;20189;-84
2023/03/10 02:34:42;;;;;;;0.82;0.82;;;;;;;;;;5075058;28;20200;-85
2023/03/10 02:37:20;;;;;;;1.40;1.30;;;;;;;;;;5074475;28;20315;-85
2023/03/10 02:39:48;;;;;;;1.25;1.08;;;;;;;;;;5074387;28;20232;-85
2023/03/10 02:42:17;;;;;;;2.20;1.33;;;;;;;;;;5074750;28;20207;-85
2023/03/10 02:44:45;;;;;;;2.08;1.20;;;;;;;;;;5074686;28;20635;-85
2023/03/10 02:47:13;;;;;;;1.10;1.00;;;;;;;;;;5074820;28;20307;-85
2023/03/10 02:49:41;;;;;;;2.15;1.40;;;;;;;;;;5074919;28;20208;-85
2023/03/10 02:52:12;;;;;;;2.20;1.00;;;;;;;;;;5074330;28;20612;-85
2023/03/10 02:54:40;;;;;;;2.25;1.50;;;;;;;;;;5074715;28;20205;-86
2023/03/10 02:57:07;;;;;;;1.20;1.10;;;;;;;;;;5074188;28;20232;-85
2023/03/10 02:59:36;;;;;;;2.88;1.77;;;;;;;;;;5074414;28;20299;-85
2023/03/10 03:02:04;;;;;;;2.97;1.20;;;;;;;;;;5073980;28;20201;-85
2023/03/10 03:04:31;;;;;;;1.30;1.20;;;;;;;;;;5074149;28;20764;-85
2023/03/10 03:06:59;;;;;;;4.72;1.20;;;;;;;;;;5073794;28;20224;-85
2023/03/10 03:09:26;;;;;;;1.85;1.10;;;;;;;;;;5074049;28;20228;-85
2023/03/10 03:11:54;;;;;;;2.95;1.50;;;;;;;;;;5074268;28;20724;-85
2023/03/10 03:14:21;;;;;;;1.45;1.20;;;;;;;;;;5073585;28;20200;-84
2023/03/10 03:16:50;;;;;;;0.80;0.80;;;;;;;;;;5073896;28;20231;-85
2023/03/10 03:19:18;;;;;;;0.82;0.82;;;;;;;;;;5074126;28;20292;-85
2023/03/10 03:21:48;;;;;;;1.40;1.30;;;;;;;;;;5074025;28;20296;-85
2023/03/10 03:24:17;;;;;;;1.42;1.02;;;;;;;;;;5074103;28;20211;-85
2023/03/10 03:26:44;;;;;;;1.00;0.90;;;;;;;;;;5073655;28;20236;-84
2023/03/10 03:29:12;;;;;;;1.05;0.95;;;;;;;;;;5073615;28;20189;-85
2023/03/10 03:31:40;;;;;;;1.23;1.15;;;;;;;;;;5073575;28;20204;-84
2023/03/10 03:34:09;;;;;;;2.90;1.25;;;;;;;;;;5073526;28;20193;-85
2023/03/10 03:36:37;;;;;;;1.02;0.93;;;;;;;;;;5073251;28;20686;-85
2023/03/10 03:39:06;;;;;;;0.98;0.80;;;;;;;;;;5073335;28;20201;-85
2023/03/10 03:41:33;;;;;;;1.17;1.00;;;;;;;;;;5073481;28;20193;-85
2023/03/10 03:44:01;;;;;;;1.98;1.83;;;;;;;;;;5073281;28;20203;-85
2023/03/10 03:46:28;;;;;;;0.90;0.90;;;;;;;;;;5073237;28;20310;-84
2023/03/10 03:48:56;;;;;;;0.80;0.80;;;;;;;;;;5073596;28;20228;-85
2023/03/10 03:51:24;;;;;;;0.85;0.82;;;;;;;;;;5073020;28;20287;-85
2023/03/10 03:53:52;;;;;;;1.20;1.20;;;;;;;;;;5073594;28;20224;-85
2023/03/10 03:56:19;;;;;;;0.88;0.88;;;;;;;;;;5073145;28;20308;-85
2023/03/10 03:58:47;;;;;;;0.82;0.80;;;;;;;;;;5072958;28;20221;-84
2023/03/10 04:01:15;;;;;;;0.70;0.70;;;;;;;;;;5073597;28;20235;-84
2023/03/10 04:03:42;;;;;;;0.68;0.68;;;;;;;;;;5073789;28;20193;-84
2023/03/10 04:06:10;;;;;;;0.80;0.80;;;;;;;;;;5073288;28;20217;-84
2023/03/10 04:08:38;;;;;;;0.80;0.80;;;;;;;;;;5073369;28;20288;-84
2023/03/10 04:11:06;;;;;;;0.82;0.75;;;;;;;;;;5073140;28;20215;-85
2023/03/10 04:13:33;;;;;;;0.60;0.60;;;;;;;;;;5073287;28;20225;-84
2023/03/10 04:16:01;;;;;;;1.33;0.70;;;;;;;;;;5073463;28;20221;-84
2023/03/10 04:18:28;;;;;;;3.33;1.20;;;;;;;;;;5072975;28;20312;-85
2023/03/10 04:20:56;;;;;;;1.80;1.70;;;;;;;;;;5073512;28;20295;-85
2023/03/10 04:23:23;;;;;;;1.23;1.17;;;;;;;;;;5073116;28;20692;-84
2023/03/10 04:25:52;;;;;;;1.25;1.23;;;;;;;;;;5072430;28;20681;-84
2023/03/10 04:28:20;;;;;;;0.85;0.80;;;;;;;;;;5072634;28;20185;-85
2023/03/10 04:30:47;;;;;;;0.60;0.60;;;;;;;;;;5072595;28;20225;-84
2023/03/10 04:33:15;;;;;;;1.15;0.70;;;;;;;;;;5072643;28;20276;-84
2023/03/10 04:35:47;;;;;;;0.60;0.60;;;;;;;;;;5072790;28;20239;-86
2023/03/10 04:38:15;;;;;;;0.57;0.50;;;;;;;;;;5072886;28;20276;-84
2023/03/10 04:40:42;;;;;;;0.60;0.60;;;;;;;;;;5072267;28;20201;-85
2023/03/10 04:43:11;;;;;;;0.45;0.45;;;;;;;;;;5072706;28;20202;-84
2023/03/10 04:45:39;;;;;;;0.63;0.63;;;;;;;;;;5072561;28;20189;-85
2023/03/10 04:48:14;;;;;;;0.63;0.63;;;;;;;;;;5072068;28;20211;-86
2023/03/10 04:50:42;;;;;;;0.40;0.40;;;;;;;;;;5072022;28;20191;-85
2023/03/10 04:53:09;;;;;;;0.52;0.52;;;;;;;;;;5072469;28;20193;-85
2023/03/10 04:55:37;;;;;;;1.55;0.40;;;;;;;;;;5072160;28;20244;-85
2023/03/10 04:58:05;;;;;;;0.40;0.40;;;;;;;;;;5072824;28;20260;-85
2023/03/10 05:00:34;;;;;;;0.38;0.38;;;;;;;;;;5072438;28;20243;-85
2023/03/10 05:03:01;;;;;;;0.40;0.40;;;;;;;;;;5072441;28;20617;-85
2023/03/10 05:05:29;;;;;;;1.48;0.30;;;;;;;;;;5072419;28;20189;-85
2023/03/10 05:07:56;;;;;;;0.40;0.40;;;;;;;;;;5072450;28;20212;-85
2023/03/10 05:10:24;;;;;;;0.45;0.30;;;;;;;;;;5072449;28;20204;-85
2023/03/10 05:12:51;;;;;;;0.30;0.30;;;;;;;;;;5072173;28;20243;-85
2023/03/10 05:15:19;;;;;;;0.30;0.30;;;;;;;;;;5072663;28;20604;-85
2023/03/10 05:17:48;;;;;;;0.40;0.40;;;;;;;;;;5072407;28;20241;-85
2023/03/10 05:20:15;;;;;;;0.40;0.40;;;;;;;;;;5072060;28;20292;-85
2023/03/10 05:22:43;;;;;;;0.20;0.20;;;;;;;;;;5072627;28;20201;-85
2023/03/10 05:25:12;;;;;;;1.13;0.35;;;;;;;;;;5072607;28;20243;-85
2023/03/10 05:27:40;;;;;;;0.20;0.20;;;;;;;;;;5072063;28;20260;-85
2023/03/10 05:30:10;;;;;;;0.28;0.28;;;;;;;;;;5072287;28;20717;-85
2023/03/10 05:32:38;;;;;;;0.30;0.30;;;;;;;;;;5072526;28;20641;-85
2023/03/10 05:35:08;;;;;;;0.20;0.20;;;;;;;;;;5072679;28;20240;-86
2023/03/10 05:37:38;;;;;;;0.30;0.30;;;;;;;;;;5072801;28;20213;-85
2023/03/10 05:40:08;;;;;;;0.93;0.30;;;;;;;;;;5075651;28;20197;-85
2023/03/10 05:42:35;;;;;;;0.30;0.30;;;;;;;;;;5075618;28;20201;-84
2023/03/10 05:45:04;;;;;;;0.50;0.50;;;;;;;;;;5075901;28;20229;-84
2023/03/10 05:47:32;;;;;;;0.50;0.50;;;;;;;;;;5075673;28;20710;-84
2023/03/10 05:50:00;;;;;;;0.40;0.40;;;;;;;;;;5077239;28;20254;-85
2023/03/10 05:52:29;;;;;;;0.60;0.57;;;;;;;;;;5078112;28;20208;-84
2023/03/10 05:54:56;;;;;;;0.45;0.45;;;;;;;;;;5076289;28;20624;-84
2023/03/10 05:57:24;;;;;;;1.55;0.50;;;;;;;;;;5078159;28;20626;-84
2023/03/10 05:59:51;;;;;;;0.40;0.40;;;;;;;;;;5077830;28;20256;-85
2023/03/10 06:02:19;;;;;;;0.47;0.47;;;;;;;;;;5076919;28;20200;-84
2023/03/10 06:04:46;;;;;;;0.47;0.47;;;;;;;;;;5075756;28;20203;-84
2023/03/10 06:07:13;;;;;;;0.50;0.50;;;;;;;;;;5075722;28;20312;-85
2023/03/10 06:09:43;;;;;;;0.60;0.60;;;;;;;;;;5075257;28;20228;-84
2023/03/10 06:12:10;;;;;;;0.65;0.60;;;;;;;;;;5075692;28;20232;-85
2023/03/10 06:14:38;;;;;;;0.63;0.63;;;;;;;;;;5075632;28;20244;-84
2023/03/10 06:17:06;;;;;;;0.52;0.47;;;;;;;;;;5075856;28;20285;-84
2023/03/10 06:19:33;;;;;;;0.70;0.70;;;;;;;;;;5075301;28;20312;-84
2023/03/10 06:22:01;;;;;;;0.60;0.60;;;;;;;;;;5075512;28;20354;-85
2023/03/10 06:24:29;;;;;;;0.35;0.35;;;;;;;;;;5075316;28;20297;-84
2023/03/10 06:26:58;;;;;;;0.60;0.60;;;;;;;;;;5076172;28;20319;-85
2023/03/10 06:29:25;;;;;;;0.65;0.65;;;;;;;;;;5076363;28;20235;-84
2023/03/10 06:31:52;;;;;;;0.60;0.60;;;;;;;;;;5076456;28;20288;-85
2023/03/10 06:34:20;;;;;;;0.93;0.77;;;;;;;;;;5076471;28;20291;-85
2023/03/10 06:36:48;;;;;;;1.98;0.85;;;;;;;;;;5076494;28;20641;-86
2023/03/10 06:39:15;;;;;;;0.73;0.73;;;;;;;;;;5075374;28;20286;-83
2023/03/10 06:41:42;;;;;;;0.80;0.80;;;;;;;;;;5076220;28;20201;-85
2023/03/10 06:44:17;;;;;;;0.80;0.80;;;;;;;;;;5076179;28;20292;-85
2023/03/10 06:46:45;;;;;;;1.23;1.13;;;;;;;;;;5075751;28;20255;-86
2023/03/10 06:49:12;;;;;;;1.88;1.10;;;;;;;;;;5074195;28;20287;-85
2023/03/10 06:51:40;;;;;;;1.13;0.80;;;;;;;;;;5075581;28;20207;-85
2023/03/10 06:54:07;;;;;;;1.42;1.00;;;;;;;;;;5076384;28;20304;-85
2023/03/10 06:56:35;;;;;;;3.85;1.55;;;;;;;;;;5055795;28;20249;-84
2023/03/10 06:59:02;;;;;;;1.65;1.10;;;;;;;;;;5054944;28;20271;-85
2023/03/10 07:01:33;;;;;;;1.00;1.00;;;;;;;;;;5055105;28;20297;-84
2023/03/10 07:04:01;;;;;;;2.92;1.30;;;;;;;;;;5059482;28;20201;-85
2023/03/10 07:06:29;;;;;;;1.27;1.00;;;;;;;;;;5075752;28;20265;-85
2023/03/10 07:08:57;;;;;;;1.30;1.27;;;;;;;;;;5075173;28;20201;-84
2023/03/10 07:11:26;;;;;;;1.00;0.90;;;;;;;;;;5075360;28;20203;-84
2023/03/10 07:13:53;;;;;;;0.80;0.80;;;;;;;;;;5075638;28;20212;-85
2023/03/10 07:16:21;;;;;;;2.05;1.02;;;;;;;;;;5075394;28;20225;-84
2023/03/10 07:18:50;;;;;;;1.52;1.10;;;;;;;;;;5075430;28;20711;-84
2023/03/10 07:21:20;;;;;;;0.70;0.70;;;;;;;;;;5075165;28;20220;-85
2023/03/10 07:23:48;;;;;;;1.02;1.00;;;;;;;;;;5075902;28;20208;-85
2023/03/10 07:26:17;;;;;;;0.80;0.80;;;;;;;;;;5075629;28;20229;-84
2023/03/10 07:28:45;;;;;;;0.77;0.77;;;;;;;;;;5074991;28;20280;-84
2023/03/10 07:31:14;;;;;;;0.93;0.90;;;;;;;;;;5074688;28;20231;-84
2023/03/10 07:33:41;;;;;;;0.70;0.70;;;;;;;;;;5074960;28;20236;-84
2023/03/10 07:36:13;;;;;;;1.20;0.90;;;;;;;;;;5074404;28;20319;-85
2023/03/10 07:38:41;;;;;;;0.93;0.88;;;;;;;;;;5074009;28;20209;-85
2023/03/10 07:41:09;;;;;;;1.48;0.90;;;;;;;;;;5074133;28;20232;-85
2023/03/10 07:43:37;;;;;;;1.40;1.25;;;;;;;;;;5073880;28;20211;-84
2023/03/10 07:46:08;;;;;;;1.40;1.17;;;;;;;;;;5074067;28;20252;-86
2023/03/10 07:48:35;;;;;;;1.13;1.00;;;;;;;;;;5073970;28;20310;-86
2023/03/10 07:51:03;;;;;;;0.93;0.90;;;;;;;;;;5065541;28;20288;-85
2023/03/10 07:53:33;;;;;;;2.47;0.90;;;;;;;;;;5053468;28;20677;-85
2023/03/10 07:56:03;;;;;;;1.40;1.25;;;;;;;;;;5053782;28;20654;-86
2023/03/10 07:58:31;;;;;;;1.35;1.00;;;;;;;;;;5053262;28;20285;-84
2023/03/10 08:00:59;;;;;;;2.45;1.00;;;;;;;;;;5053155;28;20293;-85
2023/03/10 08:03:28;;;;;;;1.08;0.82;;;;;;;;;;5053955;28;20315;-86
2023/03/10 08:05:56;;;;;;;0.80;0.80;;;;;;;;;;5053188;28;20292;-84
2023/03/10 08:08:23;;;;;;;0.60;0.60;;;;;;;;;;5053479;28;20726;-84
2023/03/10 08:11:02;;;;;;;2.47;1.42;;;;;;;;;;5052789;28;20633;-86
2023/03/10 08:13:30;;;;;;;0.70;0.70;;;;;;;;;;5059439;28;20216;-85
2023/03/10 08:16:00;;;;;;;1.48;0.85;;;;;;;;;;5073148;28;20258;-85
2023/03/10 08:18:28;;;;;;;0.75;0.70;;;;;;;;;;5073310;28;20223;-85
2023/03/10 08:20:55;;;;;;;1.25;1.00;;;;;;;;;;5072306;28;20260;-84
2023/03/10 08:23:23;;;;;;;0.95;0.77;;;;;;;;;;5074024;28;20293;-86
2023/03/10 08:25:53;;;;;;;1.48;0.90;;;;;;;;;;5073322;28;20211;-84
2023/03/10 08:28:20;;;;;;;0.77;0.77;;;;;;;;;;5072865;28;20304;-84
2023/03/10 08:30:48;;;;;;;1.13;0.65;;;;;;;;;;5072221;28;20269;-86
2023/03/10 08:33:15;;;;;;;0.68;0.68;;;;;;;;;;5072335;28;20207;-85
2023/03/10 08:35:42;;;;;;;0.57;0.57;;;;;;;;;;5072552;28;20721;-86
2023/03/10 08:38:10;;;;;;;0.80;0.80;;;;;;;;;;5072360;28;20629;-86
2023/03/10 08:40:37;;;;;;;0.45;0.45;;;;;;;;;;5074677;28;20307;-87
2023/03/10 08:43:06;;;;;;;0.50;0.50;;;;;;;;;;5075143;28;20215;-86
2023/03/10 08:45:34;;;;;;;2.90;0.80;;;;;;;;;;5072916;28;20743;-86
2023/03/10 08:48:01;;;;;;;1.42;1.00;;;;;;;;;;5072744;28;20330;-86
2023/03/10 08:50:29;;;;;;;2.03;1.20;;;;;;;;;;5071836;28;20284;-87
2023/03/10 08:52:56;;;;;;;0.80;0.80;;;;;;;;;;5072629;28;20291;-86
2023/03/10 08:55:24;;;;;;;1.40;0.80;;;;;;;;;;5072502;28;20239;-87
2023/03/10 08:57:51;;;;;;;0.80;0.80;;;;;;;;;;5072858;28;20221;-88
2023/03/10 09:00:22;;;;;;;0.70;0.70;;;;;;;;;;5073363;28;20312;-87
2023/03/10 09:02:50;;;;;;;1.58;0.93;;;;;;;;;;5076138;28;20204;-89
2023/03/10 09:05:17;;;;;;;2.25;0.90;;;;;;;;;;5073849;28;20237;-87
2023/03/10 09:07:45;;;;;;;2.35;0.90;;;;;;;;;;5073226;28;20316;-88
2023/03/10 09:10:12;;;;;;;0.98;0.82;;;;;;;;;;5072403;28;20236;-88
2023/03/10 09:12:40;;;;;;;1.10;0.70;;;;;;;;;;5073962;28;20232;-88
2023/03/10 09:15:09;;;;;;;0.80;0.80;;;;;;;;;;5079188;28;20650;-88
2023/03/10 09:17:38;;;;;;;1.45;0.90;;;;;;;;;;5076810;28;20223;-87
2023/03/10 09:20:07;;;;;;;1.30;1.20;;;;;;;;;;5076571;28;20235;-88
2023/03/10 09:22:35;;;;;;;0.93;0.90;;;;;;;;;;5076278;28;20201;-89
2023/03/10 09:25:03;;;;;;;1.00;0.90;;;;;;;;;;5076379;28;20212;-87
2023/03/10 09:27:30;;;;;;;0.95;0.77;;;;;;;;;;5078331;28;20264;-89
2023/03/10 09:29:59;;;;;;;1.30;1.20;;;;;;;;;;5076932;28;20616;-87
2023/03/10 09:32:27;;;;;;;0.93;0.88;;;;;;;;;;5077430;28;20229;-87
2023/03/10 09:34:56;;;;;;;4.63;1.70;;;;;;;;;;5076931;28;20284;-88
2023/03/10 09:37:24;;;;;;;0.73;0.73;;;;;;;;;;5075753;28;20689;-88
2023/03/10 09:39:52;;;;;;;0.70;0.70;;;;;;;;;;5075368;28;20643;-87
2023/03/10 09:42:34;;;;;;;0.70;0.70;;;;;;;;;;5075976;28;20213;-87
2023/03/10 09:45:17;;;;;;;0.47;0.47;;;;;;;;;;5076198;28;20208;-88
2023/03/10 09:47:57;;;;;;;2.28;1.10;;;;;;;;;;5076264;28;20792;-87
2023/03/10 09:50:34;;;;;;;0.63;0.63;;;;;;;;;;5075577;28;20267;-86
2023/03/10 09:53:07;;;;;;;0.80;0.77;;;;;;;;;;5075929;28;20189;-87
2023/03/10 09:55:39;;;;;;;1.23;0.98;;;;;;;;;;5076134;28;20264;-88
2023/03/10 09:58:11;;;;;;;1.20;0.90;;;;;;;;;;5075725;28;20565;-87
2023/03/10 10:00:41;;;;;;;0.70;0.70;;;;;;;;;;5075524;28;20232;-87
2023/03/10 10:03:17;;;;;;;1.00;0.70;;;;;;;;;;5075409;28;20744;-86
2023/03/10 10:05:47;;;;;;;1.08;0.90;;;;;;;;;;5075128;28;20283;-88
2023/03/10 10:08:22;;;;;;;2.50;1.33;;;;;;;;;;5075775;28;20283;-87
2023/03/10 10:10:53;;;;;;;0.85;0.85;;;;;;;;;;5075295;28;20223;-88
2023/03/10 10:13:22;;;;;;;1.38;0.93;;;;;;;;;;5076319;28;20669;-88
2023/03/10 10:15:56;;;;;;;0.85;0.85;;;;;;;;;;5076059;28;20208;-88
2023/03/10 10:18:27;;;;;;;1.35;0.93;;;;;;;;;;5075917;28;20284;-88
2023/03/10 10:21:00;;;;;;;0.68;0.68;;;;;;;;;;5075970;28;20213;-87
2023/03/10 10:23:33;;;;;;;0.80;0.80;;;;;;;;;;5075734;28;20212;-88
2023/03/10 10:26:08;;;;;;;0.60;0.60;;;;;;;;;;5074259;28;20189;-88
2023/03/10 10:28:41;;;;;;;1.75;1.55;;;;;;;;;;5074286;28;20691;-88
2023/03/10 10:31:16;;;;;;;0.98;0.88;;;;;;;;;;5075246;28;20197;-88
2023/03/10 10:33:59;;;;;;;0.82;0.80;;;;;;;;;;5075252;28;20184;-88
2023/03/10 10:36:30;;;;;;;0.98;0.98;;;;;;;;;;5075246;28;20327;-88
2023/03/10 10:38:59;;;;;;;1.20;1.02;;;;;;;;;;5074709;28;20201;-88
2023/03/10 10:41:29;;;;;;;0.80;0.80;;;;;;;;;;5075230;28;20263;-88
2023/03/10 10:44:06;;;;;;;1.50;1.40;;;;;;;;;;5075507;28;20225;-87
2023/03/10 10:46:34;;;;;;;0.88;0.85;;;;;;;;;;5074821;28;20220;-87
2023/03/10 10:49:07;;;;;;;0.40;0.40;;;;;;;;;;5074302;28;20288;-88
2023/03/10 10:51:37;;;;;;;0.85;0.70;;;;;;;;;;5074402;28;20201;-88
2023/03/10 10:54:27;;;;;;;1.10;0.80;;;;;;;;;;5073917;28;20651;-88
2023/03/10 10:56:56;;;;;;;0.60;0.60;;;;;;;;;;5076048;28;20213;-89
2023/03/10 10:59:30;;;;;;;2.70;1.35;;;;;;;;;;5075107;28;20676;-89
2023/03/10 11:02:00;;;;;;;0.73;0.73;;;;;;;;;;5075150;28;20205;-88
2023/03/10 11:04:30;;;;;;;0.70;0.70;;;;;;;;;;5077249;28;20201;-88
2023/03/10 11:07:16;;;;;;;0.73;0.73;;;;;;;;;;5078273;28;20249;-88
2023/03/10 11:09:43;;;;;;;1.70;1.60;;;;;;;;;;5073878;28;20235;-88
2023/03/10 11:12:18;;;;;;;1.10;1.00;;;;;;;;;;5075304;28;20232;-88
2023/03/10 11:15:06;;;;;;;0.88;0.88;;;;;;;;;;5076072;28;20250;-88
2023/03/10 11:17:40;;;;;;;1.40;0.80;;;;;;;;;;5074787;28;20249;-88
2023/03/10 11:20:19;;;;;;;0.88;0.60;;;;;;;;;;5073894;28;20193;-88
2023/03/10 11:22:55;;;;;;;0.70;0.60;;;;;;;;;;5074399;28;20729;-89
2023/03/10 11:25:28;;;;;;;0.98;0.98;;;;;;;;;;5074452;28;20276;-88
2023/03/10 11:28:39;;;;;;;1.02;0.90;;;;;;;;;;5073677;28;20229;-88
2023/03/10 11:31:20;;;;;;;2.42;0.70;;;;;;;;;;5072010;28;20636;-89
2023/03/10 11:33:53;;;;;;;0.88;0.88;;;;;;;;;;5074202;28;20284;-88
2023/03/10 11:36:35;;;;;;;3.70;2.30;;;;;;;;;;5073726;28;20224;-88
2023/03/10 11:39:13;;;;;;;0.68;0.68;;;;;;;;;;5073854;28;20287;-88
2023/03/10 11:41:45;;;;;;;0.77;0.70;;;;;;;;;;5074267;28;20208;-89
2023/03/10 11:44:22;;;;;;;1.23;1.08;;;;;;;;;;5074141;28;20287;-88
2023/03/10 11:47:00;;;;;;;0.52;0.52;;;;;;;;;;5073495;28;20220;-88
2023/03/10 11:49:35;;;;;;;1.10;1.10;;;;;;;;;;5073116;28;20196;-88
2023/03/10 11:52:09;;;;;;;0.63;0.63;;;;;;;;;;5057040;28;20349;-88
2023/03/10 11:54:41;;;;;;;1.02;1.02;;;;;;;;;;5070650;28;20201;-87
2023/03/10 11:57:15;;;;;;;1.02;0.80;;;;;;;;;;5073621;28;20235;-89
2023/03/10 11:59:49;;;;;;;1.98;0.88;;;;;;;;;;5073328;28;20279;-89
2023/03/10 12:02:23;;;;;;;1.63;0.90;;;;;;;;;;5073715;28;20746;-89
2023/03/10 12:04:57;;;;;;;0.88;0.88;;;;;;;;;;5073415;28;20631;-89
2023/03/10 12:07:29;;;;;;;1.65;0.85;;;;;;;;;;5073121;28;20252;-88
2023/03/10 12:10:00;;;;;;;0.95;0.77;;;;;;;;;;5071471;28;20251;-89
2023/03/10 12:12:32;;;;;;;2.25;1.15;;;;;;;;;;5073064;28;20177;-89
2023/03/10 12:15:02;;;;;;;2.70;1.20;;;;;;;;;;5067780;28;20276;-89
2023/03/10 12:17:30;;;;;;;2.28;0.95;;;;;;;;;;5072823;28;20271;-88
2023/03/10 12:20:28;;;;;;;1.52;1.35;;;;;;;;;;5072956;28;20288;-89
2023/03/10 12:22:56;;;;;;;1.90;1.13;;;;;;;;;;5078204;28;20313;-90
2023/03/10 12:25:46;;;;;;;2.13;1.00;;;;;;;;;;5073500;28;20288;-88
2023/03/10 12:28:24;;;;;;;0.93;0.90;;;;;;;;;;5087042;22;20775;-84
2023/03/10 12:30:55;;;;;;;1.65;1.00;;;;;;;;;;5073147;28;20185;-84
2023/03/10 12:33:42;;;;;;;3.22;1.35;;;;;;;;;;5072879;28;20187;-86
2023/03/10 12:36:13;;;;;;;2.67;2.10;;;;;;;;;;5074513;28;20219;-84
2023/03/10 12:38:47;;;;;;;1.10;0.85;;;;;;;;;;5072573;28;20217;-85
2023/03/10 12:41:54;;;;;;;1.27;1.08;;;;;;;;;;5072703;28;20184;-85
2023/03/10 12:44:54;;;;;;;1.10;1.00;;;;;;;;;;5072972;28;20280;-83
2023/03/10 12:47:32;;;;;;;1.90;1.20;;;;;;;;;;5072615;28;20241;-85
2023/03/10 12:50:06;;;;;;;1.35;0.95;;;;;;;;;;5076963;28;20185;-85
2023/03/10 12:52:46;;;;;;;2.08;1.33;;;;;;;;;;5077912;28;20192;-84
2023/03/10 12:55:22;;;;;;;2.20;1.15;;;;;;;;;;5078272;28;20527;-83
2023/03/10 12:58:13;;;;;;;1.98;0.93;;;;;;;;;;5078083;28;20321;-83
2023/03/10 13:00:48;;;;;;;2.40;1.10;;;;;;;;;;5078659;28;20331;-84
2023/03/10 13:03:27;;;;;;;1.95;1.35;;;;;;;;;;5078889;28;20660;-83
2023/03/10 13:06:03;;;;;;;3.05;1.30;;;;;;;;;;5080049;28;20201;-83
2023/03/10 13:08:41;;;;;;;2.63;1.25;;;;;;;;;;5080431;28;20216;-84
2023/03/10 13:11:27;;;;;;;3.58;1.10;;;;;;;;;;5080450;28;20621;-82
2023/03/10 13:14:00;;;;;;;1.27;0.60;;;;;;;;;;5079849;28;20185;-82
2023/03/10 13:16:27;;;;;;;1.00;1.00;;;;;;;;;;5078157;28;20272;-82
2023/03/10 13:18:55;;;;;;;0.80;0.75;;;;;;;;;;5079743;28;20292;-82
2023/03/10 13:21:25;;;;;;;0.60;0.60;;;;;;;;;;5078038;28;20201;-83
2023/03/10 13:23:53;;;;;;;0.65;0.60;;;;;;;;;;5082189;28;20221;-82
2023/03/10 13:26:23;;;;;;;1.40;0.60;;;;;;;;;;5077895;28;20189;-82
2023/03/10 13:28:58;;;;;;;0.77;0.70;;;;;;;;;;5076959;28;20236;-83
2023/03/10 13:31:28;;;;;;;1.05;0.70;;;;;;;;;;5077336;28;20196;-83
2023/03/10 13:33:56;;;;;;;2.75;1.88;;;;;;;;;;5077132;28;20185;-84
2023/03/10 13:36:32;;;;;;;3.53;2.63;;;;;;;;;;5075761;28;20197;-84
2023/03/10 13:39:01;;;;;;;1.10;1.10;;;;;;;;;;5075830;28;20211;-84
2023/03/10 13:41:29;;;;;;;1.45;0.95;;;;;;;;;;5075687;28;20276;-84
2023/03/10 13:43:58;;;;;;;1.17;0.95;;;;;;;;;;5075852;28;20308;-84
2023/03/10 13:46:28;;;;;;;1.20;0.80;;;;;;;;;;5076487;28;20231;-83
2023/03/10 13:49:02;;;;;;;1.73;0.95;;;;;;;;;;5077011;28;20217;-84
2023/03/10 13:51:31;;;;;;;1.42;0.90;;;;;;;;;;5076591;28;20242;-84
2023/03/10 13:54:18;;;;;;;1.33;0.68;;;;;;;;;;5076870;28;20234;-82
2023/03/10 13:56:45;;;;;;;0.70;0.70;;;;;;;;;;5077024;28;20196;-83
2023/03/10 13:59:18;;;;;;;1.23;0.80;;;;;;;;;;5076424;28;20629;-83
2023/03/10 14:01:48;;;;;;;1.58;1.08;;;;;;;;;;5077425;28;20189;-82
2023/03/10 14:04:19;;;;;;;0.70;0.70;;;;;;;;;;5076354;28;20209;-83
2023/03/10 14:06:46;;;;;;;2.90;1.40;;;;;;;;;;5076385;28;20244;-83
2023/03/10 14:09:23;;;;;;;0.65;0.65;;;;;;;;;;5076137;28;20632;-83
2023/03/10 14:11:52;;;;;;;1.50;0.80;;;;;;;;;;5076448;28;20804;-83
2023/03/10 14:14:30;;;;;;;0.77;0.60;;;;;;;;;;5076349;28;20222;-82
2023/03/10 14:16:59;;;;;;;1.60;1.05;;;;;;;;;;5076157;28;20252;-83
2023/03/10 14:19:54;;;;;;;2.13;0.93;;;;;;;;;;5075732;28;20223;-83
2023/03/10 14:22:30;;;;;;;0.98;0.55;;;;;;;;;;5051356;28;20283;-84
2023/03/10 14:24:59;;;;;;;0.73;0.70;;;;;;;;;;5075747;28;20215;-83
2023/03/10 14:27:27;;;;;;;1.10;0.73;;;;;;;;;;5075308;28;20225;-84
2023/03/10 14:30:00;;;;;;;0.93;0.93;;;;;;;;;;5075719;28;20233;-83
2023/03/10 14:32:29;;;;;;;0.50;0.50;;;;;;;;;;5075954;28;20280;-83
2023/03/10 14:34:56;;;;;;;0.93;0.65;;;;;;;;;;5075633;28;20216;-82
2023/03/10 14:37:24;;;;;;;1.40;0.82;;;;;;;;;;5075603;28;20639;-81
2023/03/10 14:39:51;;;;;;;0.80;0.80;;;;;;;;;;5075271;28;20293;-83
2023/03/10 14:42:22;;;;;;;1.17;0.85;;;;;;;;;;5076116;28;20200;-83
2023/03/10 14:44:50;;;;;;;1.17;0.70;;;;;;;;;;5077986;28;20697;-84
2023/03/10 14:47:19;;;;;;;1.27;0.80;;;;;;;;;;5077882;28;20705;-83
2023/03/10 14:49:46;;;;;;;3.42;1.00;;;;;;;;;;5076724;28;20236;-83
2023/03/10 14:52:16;;;;;;;1.27;0.75;;;;;;;;;;5075543;28;20261;-84
2023/03/10 14:54:44;;;;;;;1.83;1.15;;;;;;;;;;5075803;28;20212;-84
2023/03/10 14:57:13;;;;;;;1.67;1.48;;;;;;;;;;5075553;28;20232;-84
2023/03/10 14:59:41;;;;;;;1.23;0.95;;;;;;;;;;5075058;28;20197;-84
2023/03/10 15:02:19;;;;;;;2.67;2.00;;;;;;;;;;5074856;28;20220;-83
2023/03/10 15:04:47;;;;;;;0.88;0.88;;;;;;;;;;5074388;28;20220;-84